Time;durP1;ratioP1;P1;durP2;ratioP2;P2;SDS_P1;SDS_P2;PMS_P1;PMS_P2;Temp;Humidity;BMP_temperature;BMP_pressure;BME280_temperature;BME280_humidity;BME280_pressure;Samples;Min_cycle;Max_cycle;Signal;HPM_P1;HPM_P2
2021/04/12 06:30:37;;;;;;;14.05;5.53;;;12.80;99.90;;;;;;4957046;28;20046;-81
2021/04/12 06:58:34;;;;;;;15.68;7.40;;;12.70;99.90;;;;;;4920452;29;20508;-81
2021/04/12 07:28:34;;;;;;;10.38;6.70;;;12.80;99.90;;;;;;4772001;30;20051;-83
2021/04/12 08:12:12;;;;;;;;;;;;;;;;;;;;;
2021/04/12 08:53:49;;;;;;;;;;;;;;;;;;;;;
2021/04/12 09:03:48;;;;;;;6.72;3.30;;;12.70;99.90;;;;;;4799116;29;20073;-80
2021/04/12 09:06:35;;;;;;;3.67;2.72;;;12.70;99.90;;;;;;4820396;29;20540;-79
2021/04/12 09:09:24;;;;;;;4.38;2.97;;;12.70;99.90;;;;;;4833810;29;20044;-86
2021/04/12 09:12:02;;;;;;;4.78;2.67;;;12.70;99.90;;;;;;4945745;28;20126;-88
2021/04/12 09:15:06;;;;;;;4.55;2.30;;;12.60;99.90;;;;;;4957080;28;20484;-83
2021/04/12 09:17:53;;;;;;;3.15;2.78;;;12.60;99.90;;;;;;4955077;28;20032;-88
2021/04/12 09:20:41;;;;;;;7.75;2.50;;;12.50;99.90;;;;;;4952428;28;20039;-86
2021/04/12 09:23:28;;;;;;;6.57;2.45;;;12.50;99.90;;;;;;4953637;28;20384;-88
2021/04/12 09:26:31;;;;;;;3.97;2.35;;;12.50;99.90;;;;;;4960512;28;20488;-88
2021/04/12 09:29:00;;;;;;;4.35;2.65;;;12.50;99.90;;;;;;4954687;28;20042;-95
2021/04/12 09:31:43;;;;;;;5.22;2.15;;;12.60;99.90;;;;;;4957263;28;20035;-85
2021/04/12 09:34:41;;;;;;;4.28;2.60;;;12.50;99.90;;;;;;4955702;28;20043;-84
2021/04/12 09:37:28;;;;;;;4.22;2.67;;;12.50;99.90;;;;;;4944126;29;20038;-93
2021/04/12 09:39:57;;;;;;;6.32;2.30;;;12.60;99.90;;;;;;4954255;28;20043;-79
2021/04/12 09:42:44;;;;;;;3.20;2.05;;;12.60;99.90;;;;;;4953783;29;20039;-81
2021/04/12 09:45:42;;;;;;;6.70;2.53;;;12.70;99.90;;;;;;4956332;28;20047;-81
2021/04/12 09:48:33;;;;;;;6.55;1.90;;;12.70;99.90;;;;;;4952628;28;20054;-81
2021/04/12 09:50:59;;;;;;;7.20;2.35;;;12.80;99.90;;;;;;4956011;28;20130;-83
2021/04/12 09:53:31;;;;;;;3.85;2.28;;;12.80;99.90;;;;;;4952508;28;20114;-81
2021/04/12 09:56:28;;;;;;;3.58;2.13;;;12.80;99.90;;;;;;4956053;28;20031;-80
2021/04/12 09:59:13;;;;;;;4.10;1.80;;;12.90;99.90;;;;;;4957066;28;20062;-91
2021/04/12 10:01:57;;;;;;;3.45;1.50;;;12.80;99.90;;;;;;4951599;28;20043;-81
2021/04/12 10:04:42;;;;;;;3.75;1.80;;;12.80;99.90;;;;;;4953012;28;20035;-80
2021/04/12 10:07:36;;;;;;;3.80;1.85;;;12.80;99.90;;;;;;4952819;28;20047;-78
2021/04/12 10:10:24;;;;;;;3.25;1.48;;;12.80;99.90;;;;;;4953489;28;20031;-78
2021/04/12 10:13:29;;;;;;;5.80;1.90;;;12.80;99.90;;;;;;4953280;28;20114;-80
2021/04/12 10:16:13;;;;;;;4.18;1.60;;;12.90;99.90;;;;;;4937292;28;20396;-81
2021/04/12 10:19:00;;;;;;;;;;;;;;;;;;;;;
2021/04/12 10:21:39;;;;;;;3.70;1.80;;;13.00;99.90;;;;;;4953754;28;20027;-86
2021/04/12 10:24:13;;;;;;;4.47;1.85;;;13.00;99.90;;;;;;4953011;28;20115;-80
2021/04/12 10:27:07;;;;;;;3.55;2.00;;;13.00;99.90;;;;;;4954331;28;20389;-81
2021/04/12 10:30:06;;;;;;;3.75;1.70;;;13.10;99.90;;;;;;4959574;28;20045;-80
2021/04/12 10:32:35;;;;;;;4.88;1.75;;;13.10;99.90;;;;;;4952398;28;20504;-81
2021/04/12 10:35:08;;;;;;;5.15;2.35;;;13.20;99.90;;;;;;4955190;28;20027;-82
2021/04/12 10:37:46;;;;;;;7.07;2.15;;;13.20;99.90;;;;;;4958764;28;20035;-82
2021/04/12 10:40:48;;;;;;;2.60;1.88;;;13.20;99.90;;;;;;4950666;28;20039;-81
2021/04/12 10:43:25;;;;;;;2.37;1.50;;;13.30;99.90;;;;;;4953484;28;20515;-81
2021/04/12 10:46:02;;;;;;;2.63;1.75;;;13.30;99.90;;;;;;4956380;28;20342;-83
2021/04/12 10:48:46;;;;;;;3.15;1.98;;;13.30;99.90;;;;;;4937433;29;20750;-84
2021/04/12 10:51:49;;;;;;;3.40;1.83;;;13.40;99.90;;;;;;4950536;28;20035;-81
2021/04/12 10:54:49;;;;;;;2.47;1.73;;;13.50;99.90;;;;;;4956422;28;20059;-82
2021/04/12 10:57:57;;;;;;;4.35;1.67;;;13.40;99.90;;;;;;4952532;28;20547;-82
2021/04/12 11:01:21;;;;;;;6.05;1.40;;;13.40;99.90;;;;;;4953396;28;20062;-81
2021/04/12 11:04:08;;;;;;;2.30;1.40;;;13.30;99.90;;;;;;4952367;28;20035;-80
2021/04/12 11:07:04;;;;;;;8.57;1.83;;;13.40;99.90;;;;;;4952832;28;20054;-80
2021/04/12 11:10:14;;;;;;;5.65;1.70;;;13.40;99.90;;;;;;4955765;28;20023;-81
2021/04/12 11:13:09;;;;;;;2.33;1.73;;;13.40;99.90;;;;;;4926028;29;20736;-81
2021/04/12 11:16:01;;;;;;;3.35;1.70;;;13.40;99.90;;;;;;4953180;28;20035;-81
2021/04/12 11:18:55;;;;;;;;;;;;;;;;;;;;;
2021/04/12 11:21:47;;;;;;;2.25;1.70;;;13.30;99.90;;;;;;4953640;28;20031;-82
2021/04/12 11:24:55;;;;;;;2.03;1.85;;;13.40;99.90;;;;;;4955732;28;20038;-80
2021/04/12 11:28:13;;;;;;;;;;;;;;;;;;;;;
2021/04/12 11:31:32;;;;;;;2.90;1.70;;;13.30;99.90;;;;;;4954969;28;20403;-80
2021/04/12 11:34:33;;;;;;;50.80;4.28;;;13.40;99.90;;;;;;4938254;28;20571;-82
2021/04/12 11:37:52;;;;;;;48.00;9.80;;;13.40;99.90;;;;;;4952257;28;20035;-84
2021/04/12 11:40:44;;;;;;;22.85;3.13;;;13.40;99.90;;;;;;4967808;28;20050;-84
2021/04/12 11:43:25;;;;;;;23.42;8.00;;;13.30;99.90;;;;;;4969428;28;20035;-83
2021/04/12 11:46:36;;;;;;;;;;;;;;;;;;;;;
2021/04/12 12:26:43;;;;;;;11.07;5.72;;;13.30;99.90;;;;;;4965406;28;20089;-80
2021/04/12 14:05:55;;;;;;;27.40;6.68;;;14.50;99.90;;;;;;4801294;29;20092;-83
2021/04/12 14:12:18;;;;;;;;;;;;;;;;;;;;;
2021/04/12 15:18:34;;;;;;;25.88;7.80;;;14.10;99.90;;;;;;4735397;30;20043;-86
2021/04/12 15:51:53;;;;;;;21.13;12.27;;;14.00;99.90;;;;;;4708991;30;20108;-92
2021/04/12 15:58:20;;;;;;;19.33;11.00;;;13.90;99.90;;;;;;4813248;29;20045;-82
2021/04/12 16:04:52;;;;;;;15.75;7.50;;;13.90;99.90;;;;;;4801739;29;20039;-88
2021/04/12 16:12:00;;;;;;;17.88;10.10;;;13.90;99.90;;;;;;4758346;30;20048;-92
2021/04/12 16:25:37;;;;;;;20.30;9.77;;;13.90;99.90;;;;;;4680988;30;20065;-84
2021/04/12 16:28:48;;;;;;;21.05;7.18;;;13.90;99.90;;;;;;4723670;30;20129;-88
2021/04/12 16:31:36;;;;;;;20.33;7.05;;;13.90;99.90;;;;;;4806244;29;20041;-83
2021/04/12 17:09:07;;;;;;;15.73;7.50;;;13.50;99.90;;;;;;4748838;30;20106;-90
2021/04/12 17:32:09;;;;;;;17.50;6.35;;;13.40;99.90;;;;;;4909762;29;20058;-83
2021/04/12 17:34:59;;;;;;;24.83;8.18;;;13.30;99.90;;;;;;4934496;29;20515;-84
2021/04/12 17:41:22;;;;;;;;;;;;;;;;;;;;;
2021/04/12 18:21:50;;;;;;;22.10;7.28;;;13.20;99.90;;;;;;4896867;29;20087;-87
2021/04/12 19:33:33;;;;;;;;;;;;;;;;;;;;;
2021/04/12 19:54:24;;;;;;;19.73;6.65;;;13.60;99.90;;;;;;4831907;29;20068;-83
